createdAt,value
2023-05-14T00:00:38.847Z,49.20
2023-05-14T00:03:06.251Z,49.00
2023-05-14T00:05:33.889Z,49.10
2023-05-14T00:08:00.969Z,49.10
2023-05-14T00:10:27.954Z,49.10
2023-05-14T00:12:55.151Z,49.30
2023-05-14T00:15:22.291Z,49.10
2023-05-14T00:17:49.798Z,49.10
2023-05-14T00:20:16.871Z,49.10
2023-05-14T00:22:44.056Z,49.00
2023-05-14T00:25:11.178Z,49.20
2023-05-14T00:27:38.855Z,49.00
2023-05-14T00:30:07.078Z,49.00
2023-05-14T00:32:34.999Z,49.20
2023-05-14T00:35:04.402Z,49.30
2023-05-14T00:37:31.615Z,49.40
2023-05-14T00:39:58.853Z,49.30
2023-05-14T00:42:27.178Z,49.40
2023-05-14T00:44:54.444Z,49.40
2023-05-14T00:47:22.113Z,49.40
2023-05-14T00:49:49.232Z,49.70
2023-05-14T00:52:16.612Z,49.50
2023-05-14T00:54:44.678Z,49.30
2023-05-14T00:57:11.729Z,49.30
2023-05-14T00:59:43.868Z,49.30
2023-05-14T01:02:11.875Z,49.40
2023-05-14T01:04:38.949Z,49.60
2023-05-14T01:07:35.135Z,49.50
2023-05-14T01:10:22.263Z,49.30
2023-05-14T01:12:55.697Z,49.20
2023-05-14T01:15:25.850Z,49.50
2023-05-14T01:18:05.616Z,49.60
2023-05-14T01:20:32.670Z,49.50
2023-05-14T01:22:59.709Z,49.60
2023-05-14T01:25:27.010Z,49.60
2023-05-14T01:27:59.940Z,49.50
2023-05-14T01:30:34.562Z,49.50
2023-05-14T01:33:04.423Z,49.60
2023-05-14T01:35:31.503Z,49.50
2023-05-14T01:38:02.381Z,49.50
2023-05-14T01:40:30.435Z,49.50
2023-05-14T01:42:57.510Z,49.40
2023-05-14T01:45:24.609Z,49.50
2023-05-14T01:47:51.783Z,49.50
2023-05-14T01:50:19.099Z,49.40
2023-05-14T01:52:46.801Z,49.30
2023-05-14T01:55:14.032Z,49.30
2023-05-14T01:57:41.351Z,49.30
2023-05-14T02:00:09.430Z,49.40
2023-05-14T02:02:42.748Z,49.30
2023-05-14T02:05:12.597Z,49.30
2023-05-14T02:07:39.784Z,49.30
2023-05-14T02:10:07.646Z,49.30
2023-05-14T02:12:34.850Z,49.40
2023-05-14T02:15:04.816Z,49.40
2023-05-14T02:17:33.008Z,49.40
2023-05-14T02:20:00.162Z,49.60
2023-05-14T02:22:27.307Z,49.50
2023-05-14T02:24:54.459Z,49.50
2023-05-14T02:27:21.874Z,49.50
2023-05-14T02:29:48.909Z,49.50
2023-05-14T02:32:16.021Z,49.40
2023-05-14T02:34:43.009Z,49.40
2023-05-14T02:37:10.011Z,49.30
2023-05-14T02:39:37.787Z,49.40
2023-05-14T02:42:05.654Z,49.40
2023-05-14T02:44:32.655Z,49.30
2023-05-14T02:46:59.872Z,49.40
2023-05-14T02:49:27.217Z,49.40
2023-05-14T02:51:56.983Z,49.50
2023-05-14T02:54:24.090Z,49.50
2023-05-14T02:56:51.936Z,49.50
2023-05-14T02:59:18.942Z,49.50
2023-05-14T03:01:46.982Z,49.50
2023-05-14T03:04:14.360Z,49.40
2023-05-14T03:06:41.412Z,49.50
2023-05-14T03:09:08.444Z,49.60
2023-05-14T03:11:37.352Z,49.50
2023-05-14T03:14:04.390Z,49.70
2023-05-14T03:16:31.434Z,49.70
2023-05-14T03:18:58.591Z,49.70
2023-05-14T03:21:26.174Z,49.70
2023-05-14T03:23:54.057Z,49.70
2023-05-14T03:26:21.684Z,49.60
2023-05-14T03:28:49.879Z,49.60
2023-05-14T03:31:16.963Z,49.70
2023-05-14T03:33:44.077Z,49.90
2023-05-14T03:36:11.180Z,50.20
2023-05-14T03:38:38.903Z,50.30
2023-05-14T03:41:05.958Z,50.20
2023-05-14T03:43:33.020Z,50.30
2023-05-14T03:46:00.015Z,50.20
2023-05-14T03:48:27.430Z,50.10
2023-05-14T03:50:54.575Z,50.00
2023-05-14T03:53:21.601Z,49.90
2023-05-14T03:55:48.664Z,50.00
2023-05-14T03:58:17.488Z,49.90
2023-05-14T04:00:44.533Z,49.80
2023-05-14T04:03:12.073Z,49.70
2023-05-14T04:05:39.185Z,49.30
2023-05-14T04:08:07.171Z,49.00
2023-05-14T04:10:34.200Z,48.60
2023-05-14T04:13:01.552Z,48.40
2023-05-14T04:15:33.046Z,48.20
2023-05-14T04:18:12.296Z,47.80
2023-05-14T04:20:42.574Z,47.60
2023-05-14T04:23:09.913Z,47.40
2023-05-14T04:25:36.876Z,47.30
2023-05-14T04:28:06.007Z,47.10
2023-05-14T04:30:33.870Z,47.00
2023-05-14T04:33:00.957Z,47.10
2023-05-14T04:35:28.176Z,47.10
2023-05-14T04:37:57.091Z,47.10
2023-05-14T04:40:24.459Z,46.60
2023-05-14T04:42:52.070Z,46.50
2023-05-14T04:45:19.228Z,46.40
2023-05-14T04:47:46.736Z,46.10
2023-05-14T04:50:14.287Z,45.80
2023-05-14T04:52:41.400Z,46.00
2023-05-14T04:55:10.602Z,45.80
2023-05-14T04:57:37.894Z,45.30
2023-05-14T05:00:09.701Z,45.00
2023-05-14T05:02:36.766Z,44.70
2023-05-14T05:05:04.215Z,44.70
2023-05-14T05:07:31.401Z,44.40
2023-05-14T05:09:58.521Z,44.00
2023-05-14T05:12:26.036Z,43.70
2023-05-14T05:14:53.043Z,43.80
2023-05-14T05:17:20.911Z,43.70
2023-05-14T05:19:48.137Z,43.60
2023-05-14T05:22:15.201Z,43.40
2023-05-14T05:24:42.346Z,43.00
2023-05-14T05:27:09.516Z,42.70
2023-05-14T05:29:36.867Z,42.80
2023-05-14T05:32:04.738Z,42.60
2023-05-14T05:34:31.760Z,42.70
2023-05-14T05:36:58.808Z,42.10
2023-05-14T05:39:27.005Z,41.90
2023-05-14T05:41:54.600Z,41.20
2023-05-14T05:44:21.610Z,41.10
2023-05-14T05:46:48.783Z,40.80
2023-05-14T05:49:16.011Z,40.50
2023-05-14T05:51:43.052Z,40.60
2023-05-14T05:54:10.297Z,40.50
2023-05-14T05:56:37.866Z,39.80
2023-05-14T05:59:04.893Z,40.20
2023-05-14T06:01:32.573Z,40.10
2023-05-14T06:04:01.674Z,40.70
2023-05-14T06:06:29.322Z,40.90
2023-05-14T06:08:56.857Z,41.00
2023-05-14T06:11:24.068Z,41.00
2023-05-14T06:13:51.587Z,40.90
2023-05-14T06:16:18.866Z,40.80
2023-05-14T06:18:46.493Z,41.50
2023-05-14T06:21:13.655Z,41.00
2023-05-14T06:23:41.321Z,41.00
2023-05-14T06:26:08.974Z,41.20
2023-05-14T06:28:35.925Z,40.70
2023-05-14T06:31:03.438Z,40.30
2023-05-14T06:33:31.336Z,40.10
2023-05-14T06:36:06.798Z,39.90
2023-05-14T06:38:34.352Z,39.90
2023-05-14T06:41:01.371Z,39.50
2023-05-14T06:43:28.590Z,39.70
2023-05-14T06:45:55.565Z,39.70
2023-05-14T06:48:24.034Z,39.30
2023-05-14T06:50:51.950Z,39.40
2023-05-14T06:53:21.570Z,39.50
2023-05-14T06:55:48.906Z,39.50
2023-05-14T06:58:15.931Z,39.50
2023-05-14T07:00:43.375Z,39.10
2023-05-14T07:03:10.450Z,39.30
2023-05-14T07:05:37.545Z,39.10
2023-05-14T07:08:07.219Z,39.70
2023-05-14T07:10:35.027Z,39.50
2023-05-14T07:13:03.326Z,39.20
2023-05-14T07:15:30.870Z,39.40
2023-05-14T07:17:57.910Z,38.80
2023-05-14T07:20:26.117Z,38.80
2023-05-14T07:22:53.358Z,38.80
2023-05-14T07:25:20.857Z,39.40
2023-05-14T07:27:48.011Z,40.10
2023-05-14T07:30:15.073Z,40.30
2023-05-14T07:32:42.312Z,39.60
2023-05-14T07:35:10.108Z,39.90
2023-05-14T07:37:40.614Z,39.90
2023-05-14T07:40:08.243Z,39.90
2023-05-14T07:42:37.050Z,39.70
2023-05-14T07:45:05.696Z,39.70
2023-05-14T07:47:33.398Z,40.30
2023-05-14T07:50:00.658Z,40.00
2023-05-14T07:52:27.827Z,39.70
2023-05-14T07:54:55.213Z,39.80
2023-05-14T07:57:22.691Z,40.00
2023-05-14T07:59:49.895Z,39.90
2023-05-14T08:02:17.740Z,39.50
2023-05-14T08:04:45.264Z,39.60
2023-05-14T08:07:12.330Z,39.80
2023-05-14T08:09:39.916Z,39.90
2023-05-14T08:12:10.531Z,40.00
2023-05-14T08:14:37.620Z,39.80
2023-05-14T08:17:05.185Z,39.80
2023-05-14T08:19:33.031Z,40.30
2023-05-14T08:22:00.024Z,40.70
2023-05-14T08:24:27.142Z,40.80
2023-05-14T08:26:54.998Z,41.00
2023-05-14T08:29:22.129Z,41.20
2023-05-14T08:31:49.928Z,41.50
2023-05-14T08:34:17.667Z,41.60
2023-05-14T08:36:44.674Z,42.10
2023-05-14T08:39:11.768Z,42.10
2023-05-14T08:41:38.914Z,42.00
2023-05-14T08:44:13.870Z,42.20
2023-05-14T08:46:43.193Z,42.20
2023-05-14T08:49:37.057Z,41.70
2023-05-14T08:52:04.492Z,41.50
2023-05-14T08:54:32.802Z,42.00
2023-05-14T08:57:00.501Z,41.80
2023-05-14T08:59:27.868Z,42.20
2023-05-14T09:01:55.055Z,42.10
2023-05-14T09:04:23.869Z,42.30
2023-05-14T09:06:53.571Z,42.10
2023-05-14T09:09:23.561Z,42.20
2023-05-14T09:11:51.784Z,42.30
2023-05-14T09:14:19.095Z,42.30
2023-05-14T09:16:47.773Z,42.30
2023-05-14T09:19:15.853Z,42.70
2023-05-14T09:21:43.249Z,43.20
2023-05-14T09:24:10.222Z,43.30
2023-05-14T09:26:37.862Z,43.00
2023-05-14T09:29:05.096Z,43.10
2023-05-14T09:31:33.321Z,42.90
2023-05-14T09:34:00.676Z,42.90
2023-05-14T09:36:27.762Z,43.00
2023-05-14T09:38:58.029Z,43.30
2023-05-14T09:41:25.756Z,42.90
2023-05-14T09:43:53.896Z,42.90
2023-05-14T09:46:21.949Z,42.80
2023-05-14T09:48:49.111Z,42.80
2023-05-14T09:51:21.004Z,42.60
2023-05-14T09:53:48.645Z,42.80
2023-05-14T09:56:16.520Z,42.80
2023-05-14T09:58:46.379Z,42.90
2023-05-14T10:01:14.193Z,42.80
2023-05-14T10:03:41.245Z,42.80
2023-05-14T10:06:10.610Z,42.80
2023-05-14T10:08:38.952Z,42.80
2023-05-14T10:11:08.778Z,42.50
2023-05-14T10:13:39.784Z,42.80
2023-05-14T10:16:12.785Z,42.70
2023-05-14T10:18:41.326Z,42.70
2023-05-14T10:21:08.477Z,42.80
2023-05-14T10:23:37.875Z,43.00
2023-05-14T10:26:05.086Z,43.10
2023-05-14T10:28:32.530Z,43.30
2023-05-14T10:31:00.690Z,43.30
2023-05-14T10:33:28.393Z,43.10
2023-05-14T10:35:56.623Z,42.80
2023-05-14T10:38:28.118Z,42.90
2023-05-14T10:41:06.947Z,42.80
2023-05-14T10:43:38.473Z,42.70
2023-05-14T10:46:05.676Z,43.10
2023-05-14T10:48:33.793Z,43.40
2023-05-14T10:51:01.493Z,43.50
2023-05-14T10:53:41.569Z,43.50
2023-05-14T10:56:12.870Z,43.50
2023-05-14T10:58:43.988Z,42.80
2023-05-14T11:01:12.253Z,42.80
2023-05-14T11:03:46.778Z,42.80
2023-05-14T11:06:15.165Z,42.90
2023-05-14T11:08:42.738Z,42.90
2023-05-14T11:11:10.095Z,42.80
2023-05-14T11:13:37.458Z,42.90
2023-05-14T11:16:18.929Z,42.50
2023-05-14T11:18:54.964Z,42.80
2023-05-14T11:21:22.108Z,42.90
2023-05-14T11:23:49.214Z,42.80
2023-05-14T11:26:17.547Z,43.10
2023-05-14T11:28:48.966Z,43.10
2023-05-14T11:31:16.572Z,42.80
2023-05-14T11:33:44.073Z,42.80
2023-05-14T11:36:12.097Z,43.00
2023-05-14T11:38:49.035Z,43.30
2023-05-14T11:41:16.810Z,43.30
2023-05-14T11:43:43.891Z,43.40
2023-05-14T11:46:17.606Z,43.50
2023-05-14T11:48:44.838Z,43.50
2023-05-14T11:51:11.882Z,43.60
2023-05-14T11:53:40.222Z,43.30
2023-05-14T11:56:20.342Z,43.50
2023-05-14T11:58:55.136Z,43.60
2023-05-14T12:01:23.019Z,43.60
2023-05-14T12:03:50.883Z,43.40
2023-05-14T12:06:18.616Z,43.30
2023-05-14T12:08:47.715Z,43.30
2023-05-14T12:11:14.765Z,43.40
2023-05-14T12:13:41.762Z,43.50
2023-05-14T12:16:09.023Z,43.50
2023-05-14T12:18:37.237Z,43.70
2023-05-14T12:21:05.072Z,43.80
2023-05-14T12:23:32.471Z,43.60
2023-05-14T12:26:07.072Z,43.60
2023-05-14T12:28:37.548Z,43.40
2023-05-14T12:31:05.913Z,43.50
2023-05-14T12:33:33.465Z,43.80
2023-05-14T12:36:07.400Z,44.10
2023-05-14T12:38:41.645Z,43.80
2023-05-14T12:41:08.639Z,44.00
2023-05-14T12:43:35.788Z,44.10
2023-05-14T12:46:03.350Z,44.00
2023-05-14T12:48:30.677Z,43.90
2023-05-14T12:50:57.666Z,44.00
2023-05-14T12:53:24.892Z,43.90
2023-05-14T12:55:51.931Z,43.30
2023-05-14T12:58:19.014Z,43.30
2023-05-14T13:00:47.006Z,43.30
2023-05-14T13:03:14.158Z,43.60
2023-05-14T13:05:41.238Z,43.50
2023-05-14T13:08:09.020Z,43.60
2023-05-14T13:10:36.050Z,42.90
2023-05-14T13:13:03.614Z,43.10
2023-05-14T13:15:32.504Z,43.10
2023-05-14T13:17:59.790Z,43.20
2023-05-14T13:20:27.605Z,43.10
2023-05-14T13:22:54.846Z,43.00
2023-05-14T13:25:21.895Z,43.00
2023-05-14T13:27:51.087Z,43.10
2023-05-14T13:30:18.586Z,43.00
2023-05-14T13:32:45.800Z,43.00
2023-05-14T13:35:13.010Z,43.00
2023-05-14T13:37:40.037Z,42.70
2023-05-14T13:40:08.371Z,43.10
2023-05-14T13:42:36.084Z,42.90
2023-05-14T13:45:04.165Z,42.70
2023-05-14T13:47:34.194Z,42.80
2023-05-14T13:50:01.507Z,42.40
2023-05-14T13:52:32.121Z,42.50
2023-05-14T13:54:59.174Z,42.40
2023-05-14T13:57:26.489Z,42.30
2023-05-14T13:59:54.015Z,42.50
2023-05-14T14:02:22.111Z,42.60
2023-05-14T14:04:49.549Z,42.60
2023-05-14T14:07:16.704Z,42.40
2023-05-14T14:09:45.177Z,42.40
2023-05-14T14:12:12.229Z,42.60
2023-05-14T14:14:39.344Z,42.60
2023-05-14T14:17:06.557Z,42.60
2023-05-14T14:19:33.528Z,42.80
2023-05-14T14:22:02.555Z,42.90
2023-05-14T14:24:29.624Z,43.00
2023-05-14T14:27:01.834Z,43.00
2023-05-14T14:29:31.117Z,43.00
2023-05-14T14:31:59.146Z,43.00
2023-05-14T14:34:26.718Z,43.00
2023-05-14T14:36:53.811Z,43.00
2023-05-14T14:39:21.226Z,43.00
2023-05-14T14:41:48.509Z,43.30
2023-05-14T14:44:15.582Z,43.20
2023-05-14T14:46:42.975Z,43.00
2023-05-14T14:49:10.013Z,43.20
2023-05-14T14:51:39.833Z,43.00
2023-05-14T14:54:06.852Z,43.20
2023-05-14T14:56:33.903Z,43.50
2023-05-14T14:59:01.873Z,44.00
2023-05-14T15:01:29.450Z,45.00
2023-05-14T15:03:56.605Z,44.40
2023-05-14T15:06:23.664Z,44.60
2023-05-14T15:08:51.025Z,44.50
2023-05-14T15:11:18.073Z,45.10
2023-05-14T15:13:45.220Z,45.30
2023-05-14T15:16:13.603Z,45.20
2023-05-14T15:18:40.804Z,47.60
2023-05-14T15:21:07.899Z,48.30
2023-05-14T15:23:35.053Z,49.50
2023-05-14T15:26:02.593Z,47.60
2023-05-14T15:28:29.604Z,50.30
2023-05-14T15:30:57.406Z,51.00
2023-05-14T15:33:26.048Z,51.60
2023-05-14T15:35:54.814Z,52.00
2023-05-14T15:38:22.047Z,52.80
2023-05-14T15:40:50.874Z,53.50
2023-05-14T15:43:17.862Z,54.10
2023-05-14T15:45:45.620Z,54.00
2023-05-14T15:48:12.727Z,55.00
2023-05-14T15:50:40.879Z,55.50
2023-05-14T15:53:09.738Z,55.90
2023-05-14T15:55:36.808Z,55.90
2023-05-14T15:58:07.794Z,55.60
2023-05-14T16:00:34.992Z,56.30
2023-05-14T16:03:02.145Z,55.60
2023-05-14T16:05:29.446Z,56.70
2023-05-14T16:07:56.853Z,56.10
2023-05-14T16:10:24.101Z,56.30
2023-05-14T16:12:51.381Z,56.90
2023-05-14T16:15:18.493Z,56.50
2023-05-14T16:17:45.575Z,55.60
2023-05-14T16:20:12.767Z,57.40
2023-05-14T16:22:40.414Z,57.00
2023-05-14T16:25:07.816Z,56.80
2023-05-14T16:27:34.791Z,54.80
2023-05-14T16:30:01.964Z,56.40
2023-05-14T16:32:29.417Z,57.20
2023-05-14T16:34:56.639Z,57.80
2023-05-14T16:37:24.007Z,57.10
2023-05-14T16:39:51.893Z,57.90
2023-05-14T16:42:18.936Z,57.10
2023-05-14T16:44:45.969Z,57.90
2023-05-14T16:47:13.071Z,54.80
2023-05-14T16:49:40.271Z,57.30
2023-05-14T16:52:09.280Z,57.70
2023-05-14T16:54:37.272Z,57.60
2023-05-14T16:57:04.548Z,56.80
2023-05-14T16:59:31.852Z,56.30
2023-05-14T17:01:58.976Z,57.50
2023-05-14T17:04:27.913Z,57.70
2023-05-14T17:06:55.951Z,57.80
2023-05-14T17:09:23.105Z,58.90
2023-05-14T17:11:50.870Z,58.10
2023-05-14T17:14:18.552Z,58.20
2023-05-14T17:16:45.607Z,58.10
2023-05-14T17:19:12.701Z,57.20
2023-05-14T17:21:39.890Z,57.10
2023-05-14T17:24:07.033Z,57.60
2023-05-14T17:26:34.099Z,58.10
2023-05-14T17:29:01.796Z,56.80
2023-05-14T17:31:28.882Z,58.00
2023-05-14T17:33:56.340Z,58.70
2023-05-14T17:36:25.796Z,59.20
2023-05-14T17:38:52.817Z,59.20
2023-05-14T17:41:19.877Z,58.80
2023-05-14T17:43:47.057Z,59.30
2023-05-14T17:46:14.215Z,59.80
2023-05-14T17:48:41.321Z,59.80
2023-05-14T17:51:09.188Z,57.30
2023-05-14T17:53:36.893Z,58.60
2023-05-14T17:56:04.876Z,59.50
2023-05-14T17:58:31.928Z,59.00
2023-05-14T18:00:59.119Z,59.90
2023-05-14T18:03:26.300Z,59.10
2023-05-14T18:05:54.356Z,59.50
2023-05-14T18:08:21.490Z,57.90
2023-05-14T18:10:49.421Z,59.20
2023-05-14T18:13:16.427Z,57.20
2023-05-14T18:15:43.507Z,59.10
2023-05-14T18:18:10.796Z,58.60
2023-05-14T18:20:38.173Z,59.50
2023-05-14T18:23:06.254Z,57.90
2023-05-14T18:25:35.552Z,59.60
2023-05-14T18:28:04.521Z,58.60
2023-05-14T18:30:31.543Z,58.40
2023-05-14T18:32:59.885Z,58.60
2023-05-14T18:35:29.006Z,58.70
2023-05-14T18:37:56.098Z,58.30
2023-05-14T18:40:23.193Z,57.40
2023-05-14T18:42:50.468Z,60.00
2023-05-14T18:45:17.614Z,60.60
2023-05-14T18:47:44.671Z,59.60
2023-05-14T18:50:11.741Z,60.90
2023-05-14T18:52:38.989Z,59.60
2023-05-14T18:55:07.993Z,59.50
2023-05-14T18:57:35.786Z,59.90
2023-05-14T19:00:04.536Z,58.80
2023-05-14T19:02:33.245Z,60.70
2023-05-14T19:05:00.343Z,61.10
2023-05-14T19:07:27.755Z,60.50
2023-05-14T19:09:55.494Z,60.90
2023-05-14T19:12:22.674Z,59.30
2023-05-14T19:14:49.834Z,60.30
2023-05-14T19:17:18.455Z,59.30
2023-05-14T19:19:46.239Z,59.30
2023-05-14T19:22:13.204Z,59.40
2023-05-14T19:24:40.490Z,58.40
2023-05-14T19:27:08.104Z,59.80
2023-05-14T19:29:36.830Z,59.00
2023-05-14T19:32:04.825Z,59.60
2023-05-14T19:34:31.866Z,60.10
2023-05-14T19:37:01.271Z,59.50
2023-05-14T19:39:28.391Z,59.60
2023-05-14T19:41:55.358Z,60.60
2023-05-14T19:44:22.377Z,60.70
2023-05-14T19:46:49.629Z,60.70
2023-05-14T19:49:16.779Z,60.20
2023-05-14T19:51:43.770Z,61.10
2023-05-14T19:54:10.879Z,61.20
2023-05-14T19:56:40.453Z,60.80
2023-05-14T19:59:07.462Z,60.90
2023-05-14T20:01:35.013Z,59.90
2023-05-14T20:04:02.851Z,59.90
2023-05-14T20:06:29.911Z,61.10
2023-05-14T20:08:57.458Z,61.10
2023-05-14T20:11:25.280Z,61.10
2023-05-14T20:13:56.892Z,61.00
2023-05-14T20:16:23.947Z,60.90
2023-05-14T20:18:53.089Z,60.80
2023-05-14T20:21:20.135Z,62.00
2023-05-14T20:23:47.207Z,62.10
2023-05-14T20:26:14.301Z,60.60
2023-05-14T20:28:44.591Z,61.70
2023-05-14T20:31:11.729Z,61.10
2023-05-14T20:33:38.738Z,61.40
2023-05-14T20:36:05.852Z,61.90
2023-05-14T20:38:34.927Z,61.20
2023-05-14T20:41:02.442Z,62.60
2023-05-14T20:43:30.547Z,62.10
2023-05-14T20:45:58.968Z,61.20
2023-05-14T20:48:26.099Z,61.60
2023-05-14T20:50:53.157Z,62.30
2023-05-14T20:53:20.397Z,62.20
2023-05-14T20:55:47.757Z,62.10
2023-05-14T20:58:14.741Z,62.40
2023-05-14T21:00:41.754Z,62.00
2023-05-14T21:03:09.861Z,61.50
2023-05-14T21:05:37.200Z,62.00
2023-05-14T21:08:04.282Z,62.20
2023-05-14T21:10:31.432Z,62.10
2023-05-14T21:12:58.348Z,61.70
2023-05-14T21:15:27.377Z,62.10
2023-05-14T21:17:54.706Z,61.90
2023-05-14T21:20:21.747Z,62.40
2023-05-14T21:22:48.874Z,61.50
2023-05-14T21:25:16.538Z,60.60
2023-05-14T21:27:43.507Z,61.10
2023-05-14T21:30:11.149Z,61.80
2023-05-14T21:32:38.157Z,61.10
2023-05-14T21:35:06.964Z,61.30
2023-05-14T21:37:34.069Z,61.50
2023-05-14T21:40:01.021Z,61.60
2023-05-14T21:42:28.045Z,61.60
2023-05-14T21:44:56.002Z,60.70
2023-05-14T21:47:23.077Z,60.20
2023-05-14T21:49:50.037Z,61.00
2023-05-14T21:52:17.591Z,60.80
2023-05-14T21:54:44.541Z,61.20
2023-05-14T21:57:11.626Z,60.40
2023-05-14T21:59:38.696Z,59.60
2023-05-14T22:02:07.461Z,60.30
2023-05-14T22:04:36.869Z,60.50
2023-05-14T22:07:04.632Z,59.90
2023-05-14T22:09:34.694Z,60.50
2023-05-14T22:12:02.447Z,59.60
2023-05-14T22:14:29.473Z,60.10
2023-05-14T22:16:57.053Z,59.70
2023-05-14T22:19:25.796Z,59.10
2023-05-14T22:21:52.891Z,59.30
2023-05-14T22:24:19.877Z,59.90
2023-05-14T22:26:46.965Z,59.60
2023-05-14T22:29:13.968Z,59.10
2023-05-14T22:31:40.936Z,60.00
2023-05-14T22:34:08.388Z,60.30
2023-05-14T22:36:36.444Z,60.10
2023-05-14T22:39:04.586Z,60.00
2023-05-14T22:41:31.843Z,59.10
2023-05-14T22:43:58.852Z,58.60
2023-05-14T22:46:26.308Z,59.30
2023-05-14T22:48:54.008Z,58.90
2023-05-14T22:51:21.160Z,60.00
2023-05-14T22:53:48.580Z,59.40
2023-05-14T22:56:15.904Z,59.60
2023-05-14T22:58:42.845Z,59.20
2023-05-14T23:01:09.824Z,59.10
2023-05-14T23:03:37.381Z,60.40
2023-05-14T23:06:05.120Z,59.30
2023-05-14T23:08:32.369Z,60.00
2023-05-14T23:10:59.784Z,60.10
2023-05-14T23:13:27.484Z,59.40
2023-05-14T23:15:54.824Z,59.90
2023-05-14T23:18:24.028Z,60.30
2023-05-14T23:20:51.243Z,59.90
2023-05-14T23:23:18.279Z,60.00
2023-05-14T23:25:45.418Z,59.80
2023-05-14T23:28:12.561Z,60.00
2023-05-14T23:30:39.599Z,59.00
2023-05-14T23:33:06.951Z,59.40
2023-05-14T23:35:34.936Z,59.60
2023-05-14T23:38:02.238Z,59.70
2023-05-14T23:40:29.625Z,60.10
2023-05-14T23:42:59.310Z,59.80
2023-05-14T23:45:27.386Z,59.50
2023-05-14T23:47:55.178Z,59.80
2023-05-14T23:50:22.226Z,60.20
2023-05-14T23:52:52.988Z,59.70
2023-05-14T23:55:20.858Z,60.50
2023-05-14T23:57:48.346Z,59.60
